Terminal Aerodrome Forecast
Issued by NWS Grand Rapids, MI

Home | Current Version | Previous Version | Text Only | Print | Product List | Glossary On
Versions: 1 2 3 4 5 6 7 8 9 10 11 12 13 14 15 16
000
FTUS43 KGRR 190530
TAFGRR
TAF
KGRR 190530Z 1906/2006 15013KT P6SM BKN200
     FM191100 18010KT P6SM VCSH OVC015
     FM191400 17007KT 5SM BR OVC007
     FM191700 15008KT 1SM -RA BR OVC004
     FM192200 17008KT 1SM RA BR VCTS OVC004CB=

USA.gov is the U.S. government's official web portal to all federal, state and local government web resources and services.